Time;durP1;ratioP1;P1;durP2;ratioP2;P2;SDS_P1;SDS_P2;PMS_P1;PMS_P2;Temp;Humidity;BMP_temperature;BMP_pressure;BME280_temperature;BME280_humidity;BME280_pressure;Samples;Min_cycle;Max_cycle;Signal;HPM_P1;HPM_P2
2022/10/25 00:00:39;;;;;;;25.70;23.00;;;;;;;14.04;100.00;98835.58;105445;1296;60580;-76
2022/10/25 00:03:26;;;;;;;26.70;23.10;;;;;;;14.02;100.00;98831.10;105616;1293;66654;-77
2022/10/25 00:05:52;;;;;;;25.30;22.70;;;;;;;14.00;100.00;98826.23;105542;1296;60963;-75
2022/10/25 00:08:19;;;;;;;26.60;23.70;;;;;;;13.98;100.00;98826.77;105625;1294;65013;-75
2022/10/25 00:10:46;;;;;;;26.70;24.00;;;;;;;13.96;100.00;98820.35;105566;1294;58306;-75
2022/10/25 00:13:13;;;;;;;29.60;25.20;;;;;;;13.94;100.00;98823.58;105624;1294;58219;-76
2022/10/25 00:15:39;;;;;;;30.40;27.10;;;;;;;13.90;100.00;98828.55;105615;1300;66303;-76
2022/10/25 00:18:06;;;;;;;31.20;27.90;;;;;;;13.87;100.00;98836.13;105627;1293;58227;-76
2022/10/25 00:20:35;;;;;;;30.60;26.10;;;;;;;13.84;100.00;98840.14;105982;1295;63959;-76
2022/10/25 00:23:02;;;;;;;29.40;26.10;;;;;;;13.80;100.00;98843.88;106190;1295;58013;-76
2022/10/25 00:25:28;;;;;;;33.60;28.50;;;;;;;13.76;100.00;98847.95;106234;1284;58085;-76
2022/10/25 00:27:55;;;;;;;35.40;31.60;;;;;;;13.72;100.00;98850.00;106213;1288;66216;-76
2022/10/25 00:30:21;;;;;;;36.30;30.80;;;;;;;13.69;100.00;98856.86;106209;1284;58141;-75
2022/10/25 00:32:51;;;;;;;39.50;35.20;;;;;;;13.66;100.00;98855.55;106205;1285;58013;-76
2022/10/25 00:35:18;;;;;;;51.80;45.90;;;;;;;13.62;100.00;98853.02;106216;1284;59068;-75
2022/10/25 00:37:44;;;;;;;47.50;42.30;;;;;;;13.58;100.00;98858.66;106222;1295;58012;-76
2022/10/25 00:40:11;;;;;;;48.50;43.70;;;;;;;13.54;100.00;98861.84;106220;1284;58793;-76
2022/10/25 00:42:38;;;;;;;43.00;38.40;;;;;;;13.50;100.00;98856.83;105991;1292;60109;-77
2022/10/25 00:45:26;;;;;;;41.00;36.60;;;;;;;13.47;100.00;98858.17;106207;1288;65023;-75
2022/10/25 00:48:00;;;;;;;31.90;28.50;;;;;;;13.43;100.00;98857.40;106241;1279;58047;-77
2022/10/25 00:50:34;;;;;;;32.80;28.00;;;;;;;13.39;100.00;98851.99;106008;1291;58269;-76
2022/10/25 00:53:11;;;;;;;33.00;27.20;;;;;;;13.36;100.00;98846.02;106223;1288;66274;-76
2022/10/25 00:55:41;;;;;;;32.30;25.90;;;;;;;13.31;100.00;98848.50;106234;1281;60018;-76
2022/10/25 00:58:13;;;;;;;36.00;27.90;;;;;;;13.28;100.00;98850.02;106202;1284;65008;-76
2022/10/25 01:00:40;;;;;;;32.50;28.90;;;;;;;13.26;100.00;98844.65;106233;1281;58121;-76
2022/10/25 01:03:07;;;;;;;27.00;23.90;;;;;;;13.24;100.00;98838.21;106211;1288;57949;-76
2022/10/25 01:05:34;;;;;;;27.70;24.10;;;;;;;13.20;100.00;98839.44;106060;1281;66269;-75
2022/10/25 01:08:01;;;;;;;29.00;24.00;;;;;;;13.16;100.00;98837.79;106168;1289;61027;-76
2022/10/25 01:10:28;;;;;;;27.70;24.90;;;;;;;13.12;100.00;98838.08;106295;1286;65275;-76
2022/10/25 01:12:55;;;;;;;28.30;25.10;;;;;;;13.09;100.00;98847.56;106290;1282;58055;-76
2022/10/25 01:15:27;;;;;;;25.50;22.60;;;;;;;13.06;100.00;98846.42;106275;1285;58609;-76
2022/10/25 01:18:12;;;;;;;23.80;20.60;;;;;;;13.03;100.00;98848.30;106274;1285;66186;-76
2022/10/25 01:20:39;;;;;;;26.90;22.20;;;;;;;13.01;100.00;98850.23;106111;1288;61124;-76
2022/10/25 01:23:12;;;;;;;23.10;20.00;;;;;;;13.00;100.00;98851.00;106053;1283;58129;-76
2022/10/25 01:26:00;;;;;;;29.30;24.40;;;;;;;13.00;100.00;98850.44;106299;1285;58080;-78
2022/10/25 01:29:09;;;;;;;29.20;24.80;;;;;;;12.99;100.00;98848.98;106369;1278;58148;-75
2022/10/25 01:31:36;;;;;;;26.90;23.60;;;;;;;12.95;100.00;98850.13;105186;1302;66300;-76
2022/10/25 01:34:25;;;;;;;28.40;25.40;;;;;;;12.92;100.00;98848.43;105184;1299;58337;-75
2022/10/25 01:37:08;;;;;;;29.80;24.40;;;;;;;12.88;100.00;98847.67;105197;1308;65092;-75
2022/10/25 01:39:43;;;;;;;24.00;21.50;;;;;;;12.84;100.00;98848.90;105195;1302;58248;-75
2022/10/25 01:42:12;;;;;;;19.30;17.20;;;;;;;12.80;100.00;98849.73;104880;1303;58181;-75
2022/10/25 01:44:45;;;;;;;16.60;14.90;;;;;;;12.76;100.00;98850.38;105177;1300;66241;-76
2022/10/25 01:47:28;;;;;;;17.60;13.60;;;;;;;12.72;100.00;98847.63;105183;1299;61073;-76
2022/10/25 01:50:28;;;;;;;17.00;15.20;;;;;;;12.69;100.00;98840.94;105165;1300;64324;-76
2022/10/25 01:52:55;;;;;;;16.30;14.50;;;;;;;12.65;100.00;98848.52;104403;1308;58440;-76
2022/10/25 01:55:29;;;;;;;15.50;14.00;;;;;;;12.63;100.00;98850.69;104204;1317;58153;-76
2022/10/25 01:58:00;;;;;;;16.20;13.90;;;;;;;12.61;100.00;98856.39;104396;1308;63868;-76
2022/10/25 02:00:33;;;;;;;17.80;14.70;;;;;;;12.62;100.00;98866.96;104414;1308;60156;-75
2022/10/25 02:03:26;;;;;;;18.50;15.80;;;;;;;12.64;100.00;98866.63;104208;1308;63634;-75
2022/10/25 02:06:01;;;;;;;16.50;14.80;;;;;;;12.67;100.00;98864.83;104368;1312;58234;-75
2022/10/25 02:08:45;;;;;;;16.30;14.70;;;;;;;12.68;100.00;98862.05;104726;1302;58207;-76
2022/10/25 02:11:26;;;;;;;17.30;15.30;;;;;;;12.67;100.00;98861.94;105592;1302;64989;-76
2022/10/25 02:14:11;;;;;;;17.30;15.50;;;;;;;12.64;100.00;98861.48;105587;1294;59957;-76
2022/10/25 02:16:49;;;;;;;17.40;15.60;;;;;;;12.61;100.00;98853.33;105583;1294;62641;-76
2022/10/25 02:19:24;;;;;;;19.60;16.30;;;;;;;12.58;100.00;98856.05;105566;1294;58149;-76
2022/10/25 02:21:52;;;;;;;17.60;15.80;;;;;;;12.55;100.00;98857.05;105606;1302;58295;-77
2022/10/25 02:24:23;;;;;;;17.60;15.00;;;;;;;12.51;100.00;98859.77;105608;1294;66331;-76
2022/10/25 02:26:52;;;;;;;17.90;15.50;;;;;;;12.48;100.00;98861.46;105427;1294;60998;-77
2022/10/25 02:29:21;;;;;;;17.60;15.60;;;;;;;12.46;100.00;98862.01;106003;1288;64073;-77
2022/10/25 02:31:48;;;;;;;17.00;15.10;;;;;;;12.44;100.00;98859.83;106232;1284;58336;-75
2022/10/25 02:34:15;;;;;;;18.50;14.90;;;;;;;12.41;100.00;98860.62;106228;1289;58170;-75
2022/10/25 02:36:41;;;;;;;18.00;15.90;;;;;;;12.37;100.00;98859.86;106191;1288;65652;-75
2022/10/25 02:39:08;;;;;;;18.30;15.90;;;;;;;12.33;100.00;98862.07;106215;1288;60805;-76
2022/10/25 02:41:34;;;;;;;17.00;14.90;;;;;;;12.29;100.00;98864.27;106213;1289;64801;-75
2022/10/25 02:44:01;;;;;;;16.70;14.40;;;;;;;12.26;100.00;98859.17;106224;1287;58120;-75
2022/10/25 02:46:27;;;;;;;18.20;16.30;;;;;;;12.23;100.00;98859.08;106250;1287;58220;-75
2022/10/25 02:48:54;;;;;;;20.60;17.60;;;;;;;12.19;100.00;98858.70;106216;1291;66071;-75
2022/10/25 02:51:21;;;;;;;25.30;19.00;;;;;;;12.14;100.00;98863.67;106209;1286;60754;-75
2022/10/25 02:53:49;;;;;;;22.50;19.20;;;;;;;12.12;100.00;98867.98;106205;1285;63959;-75
2022/10/25 02:56:20;;;;;;;20.50;17.20;;;;;;;12.08;100.00;98869.63;105918;1289;58083;-76
2022/10/25 02:58:48;;;;;;;18.90;16.90;;;;;;;12.04;100.00;98870.85;106228;1287;58362;-76
2022/10/25 03:01:17;;;;;;;19.30;16.80;;;;;;;12.01;100.00;98870.54;105924;1291;63660;-76
2022/10/25 03:03:44;;;;;;;17.60;15.70;;;;;;;11.97;100.00;98871.01;106213;1286;59878;-76
2022/10/25 03:06:12;;;;;;;16.90;15.20;;;;;;;11.93;100.00;98870.59;106233;1288;64186;-76
2022/10/25 03:08:40;;;;;;;20.60;16.00;;;;;;;11.90;100.00;98877.07;106309;1287;58145;-76
2022/10/25 03:11:09;;;;;;;20.10;14.90;;;;;;;11.87;100.00;98876.73;105937;1278;58339;-77
2022/10/25 03:13:35;;;;;;;15.70;14.10;;;;;;;11.86;100.00;98876.06;106355;1284;65210;-76
2022/10/25 03:16:02;;;;;;;17.90;14.90;;;;;;;11.89;100.00;98878.23;106338;1285;61053;-76
2022/10/25 03:18:29;;;;;;;15.70;12.70;;;;;;;11.89;100.00;98879.27;106301;1285;63977;-76
2022/10/25 03:20:57;;;;;;;14.70;12.80;;;;;;;11.89;100.00;98877.33;106325;1278;58105;-75
2022/10/25 03:23:25;;;;;;;14.60;12.50;;;;;;;11.89;100.00;98878.56;106316;1292;58402;-76
2022/10/25 03:25:52;;;;;;;18.00;12.80;;;;;;;11.90;100.00;98881.36;106309;1277;66196;-76
2022/10/25 03:28:19;;;;;;;15.20;12.80;;;;;;;11.90;100.00;98882.27;106343;1278;60051;-76
2022/10/25 03:30:46;;;;;;;15.70;13.10;;;;;;;11.88;100.00;98887.38;106320;1288;65007;-76
2022/10/25 03:33:13;;;;;;;14.90;13.20;;;;;;;11.84;100.00;98889.36;106314;1290;58068;-75
2022/10/25 03:35:39;;;;;;;13.60;12.20;;;;;;;11.82;100.00;98893.48;106338;1285;58067;-76
2022/10/25 03:38:06;;;;;;;15.70;12.20;;;;;;;11.80;100.00;98889.70;106331;1278;66403;-75
2022/10/25 03:40:33;;;;;;;15.90;12.30;;;;;;;11.79;100.00;98887.62;106358;1285;61073;-75
2022/10/25 03:42:59;;;;;;;14.30;12.60;;;;;;;11.79;100.00;98887.28;106306;1285;64999;-75
2022/10/25 03:45:26;;;;;;;12.30;10.60;;;;;;;11.79;100.00;98887.09;106291;1278;58313;-75
2022/10/25 03:47:52;;;;;;;12.30;11.00;;;;;;;11.78;100.00;98886.41;106068;1288;58450;-75
2022/10/25 03:50:19;;;;;;;12.60;10.70;;;;;;;11.79;100.00;98886.36;106287;1278;65197;-76
2022/10/25 03:52:46;;;;;;;13.40;11.20;;;;;;;11.80;100.00;98888.48;106095;1288;61050;-76
2022/10/25 03:55:12;;;;;;;15.00;11.10;;;;;;;11.79;100.00;98884.98;106319;1284;64852;-76
2022/10/25 03:57:39;;;;;;;12.30;10.50;;;;;;;11.78;100.00;98885.38;106312;1286;58360;-77
2022/10/25 04:00:06;;;;;;;13.50;11.60;;;;;;;11.77;100.00;98889.00;106334;1278;58129;-76
2022/10/25 04:02:33;;;;;;;12.20;10.90;;;;;;;11.77;100.00;98893.33;106357;1276;65251;-77
2022/10/25 04:04:59;;;;;;;16.40;11.40;;;;;;;11.75;100.00;98898.22;106333;1284;61003;-76
2022/10/25 04:07:26;;;;;;;12.60;11.20;;;;;;;11.74;100.00;98895.27;106311;1277;65017;-76
2022/10/25 04:09:53;;;;;;;13.30;11.70;;;;;;;11.73;100.00;98894.31;106330;1286;58865;-77
2022/10/25 04:12:21;;;;;;;12.50;10.90;;;;;;;11.72;100.00;98893.80;106312;1285;58138;-76
2022/10/25 04:14:47;;;;;;;12.10;10.80;;;;;;;11.72;100.00;98897.79;106330;1284;58052;-76
2022/10/25 04:17:14;;;;;;;12.80;11.40;;;;;;;11.72;100.00;98894.75;106368;1285;60996;-76
2022/10/25 04:19:40;;;;;;;11.00;9.90;;;;;;;11.72;100.00;98891.71;106314;1285;72233;-76
2022/10/25 04:22:07;;;;;;;14.10;11.10;;;;;;;11.72;100.00;98897.08;106164;1285;223830;-76
2022/10/25 04:24:38;;;;;;;12.30;10.90;;;;;;;11.72;100.00;98899.56;106341;1284;57981;-76
2022/10/25 04:27:04;;;;;;;12.80;11.50;;;;;;;11.74;100.00;98893.73;106336;1285;64904;-76
2022/10/25 04:29:31;;;;;;;12.50;10.50;;;;;;;11.77;100.00;98899.02;106349;1285;61020;-76
2022/10/25 04:31:57;;;;;;;12.60;11.10;;;;;;;11.80;100.00;98899.46;106320;1285;65009;-76
2022/10/25 04:34:24;;;;;;;11.70;10.60;;;;;;;11.84;100.00;98898.47;106313;1285;58698;-76
2022/10/25 04:36:50;;;;;;;13.80;11.20;;;;;;;11.88;100.00;98898.94;106343;1285;58115;-75
2022/10/25 04:39:17;;;;;;;12.90;11.10;;;;;;;11.91;100.00;98895.88;106328;1279;66178;-76
2022/10/25 04:41:44;;;;;;;11.20;10.00;;;;;;;11.94;100.00;98892.62;106320;1278;60937;-77
2022/10/25 04:44:10;;;;;;;13.10;11.10;;;;;;;11.97;100.00;98889.71;106302;1291;64733;-77
2022/10/25 04:46:37;;;;;;;11.60;10.50;;;;;;;12.01;100.00;98891.20;106311;1285;58108;-77
2022/10/25 04:49:03;;;;;;;11.10;9.90;;;;;;;12.04;100.00;98890.05;106321;1285;58151;-76
2022/10/25 04:51:30;;;;;;;12.40;10.30;;;;;;;12.07;100.00;98893.59;106345;1269;65920;-76
2022/10/25 04:53:56;;;;;;;12.80;10.10;;;;;;;12.10;100.00;98890.36;106340;1284;59945;-77
2022/10/25 04:56:23;;;;;;;13.20;10.20;;;;;;;12.13;100.00;98881.44;106335;1285;64007;-76
2022/10/25 04:58:49;;;;;;;13.30;9.80;;;;;;;12.15;100.00;98877.66;106047;1288;58277;-76
2022/10/25 05:01:17;;;;;;;11.10;10.10;;;;;;;12.17;100.00;98872.70;106332;1285;58341;-75
2022/10/25 05:03:44;;;;;;;11.90;10.20;;;;;;;12.19;100.00;98872.91;106317;1278;66423;-76
2022/10/25 05:06:21;;;;;;;12.40;10.20;;;;;;;12.22;100.00;98875.04;106356;1281;60105;-76
2022/10/25 05:08:49;;;;;;;11.70;10.30;;;;;;;12.24;100.00;98869.91;106339;1285;64058;-76
2022/10/25 05:11:19;;;;;;;12.70;10.60;;;;;;;12.25;100.00;98867.27;106243;1289;58193;-76
2022/10/25 05:13:46;;;;;;;11.70;10.30;;;;;;;12.27;100.00;98869.48;106344;1285;58051;-76
2022/10/25 05:16:23;;;;;;;11.60;10.40;;;;;;;12.29;100.00;98871.66;106340;1285;66358;-76
2022/10/25 05:18:53;;;;;;;11.10;10.00;;;;;;;12.30;100.00;98873.00;106048;1278;60058;-76
2022/10/25 05:21:20;;;;;;;;;;;;;;;12.31;100.00;98871.86;106318;1277;64012;-77
2022/10/25 05:23:46;;;;;;;10.90;9.80;;;;;;;12.30;100.00;98872.23;106308;1285;58020;-76
2022/10/25 05:26:18;;;;;;;12.90;10.70;;;;;;;12.31;100.00;98870.59;106347;1285;58497;-77
2022/10/25 05:28:48;;;;;;;13.90;10.40;;;;;;;12.33;100.00;98876.70;106071;1288;65245;-77
2022/10/25 05:31:23;;;;;;;11.90;10.20;;;;;;;12.33;100.00;98876.71;106336;1286;60405;-75
2022/10/25 05:33:52;;;;;;;12.20;10.00;;;;;;;12.34;100.00;98884.45;106298;1278;65314;-76
2022/10/25 05:36:19;;;;;;;11.50;9.40;;;;;;;12.35;100.00;98884.89;106319;1285;57951;-76
2022/10/25 05:38:46;;;;;;;10.80;9.10;;;;;;;12.37;100.00;98888.70;106329;1276;58246;-76
2022/10/25 05:41:14;;;;;;;9.90;8.60;;;;;;;12.38;100.00;98892.54;106332;1278;66388;-76
2022/10/25 05:43:41;;;;;;;11.70;10.10;;;;;;;12.40;100.00;98895.39;106261;1287;61027;-77
2022/10/25 05:46:14;;;;;;;10.80;9.80;;;;;;;12.42;100.00;98896.46;106023;1284;64065;-76
2022/10/25 05:48:41;;;;;;;10.30;9.20;;;;;;;12.44;100.00;98897.02;106321;1285;58111;-78
2022/10/25 05:51:08;;;;;;;11.20;10.10;;;;;;;12.46;100.00;98905.61;106330;1278;58113;-77
2022/10/25 05:53:35;;;;;;;10.10;9.10;;;;;;;12.48;100.00;98909.55;106325;1285;66284;-76
2022/10/25 05:56:01;;;;;;;10.40;9.40;;;;;;;12.50;100.00;98908.36;106314;1284;60946;-76
2022/10/25 05:58:28;;;;;;;10.80;9.40;;;;;;;12.51;100.00;98910.58;106327;1285;65237;-76
2022/10/25 06:00:58;;;;;;;13.30;9.90;;;;;;;12.54;100.00;98912.83;106367;1277;58129;-82
2022/10/25 06:03:24;;;;;;;11.10;9.70;;;;;;;12.57;100.00;98919.73;106094;1285;58142;-88
2022/10/25 06:05:51;;;;;;;11.30;10.10;;;;;;;12.61;100.00;98925.17;106254;1281;65168;-86
2022/10/25 06:08:18;;;;;;;10.30;9.30;;;;;;;12.64;100.00;98932.90;106390;1282;60991;-86
2022/10/25 06:10:45;;;;;;;11.80;10.30;;;;;;;12.68;100.00;98936.89;106086;1289;62597;-90
2022/10/25 06:13:11;;;;;;;11.20;10.00;;;;;;;12.72;100.00;98941.75;106375;1285;58431;-81
2022/10/25 06:15:38;;;;;;;12.10;10.30;;;;;;;12.77;100.00;98941.26;106369;1278;58043;-81
2022/10/25 06:18:05;;;;;;;10.50;9.10;;;;;;;12.81;100.00;98940.91;106335;1285;65952;-81
2022/10/25 06:20:32;;;;;;;10.10;8.70;;;;;;;12.85;100.00;98943.11;106400;1284;60254;-90
2022/10/25 06:22:59;;;;;;;10.60;9.50;;;;;;;12.89;100.00;98942.30;106429;1285;65050;-91
2022/10/25 06:25:25;;;;;;;12.70;8.80;;;;;;;12.91;100.00;98946.54;106349;1285;58223;-84
2022/10/25 06:27:52;;;;;;;9.70;8.60;;;;;;;12.97;100.00;98952.02;106346;1279;60919;-89
2022/10/25 06:30:18;;;;;;;10.40;9.10;;;;;;;13.02;100.00;98948.80;106123;1289;65144;-79
2022/10/25 06:32:45;;;;;;;8.20;7.40;;;;;;;13.06;100.00;98944.70;106326;1285;69265;-78
2022/10/25 06:35:11;;;;;;;9.40;8.40;;;;;;;13.10;100.00;98946.13;106039;1291;64992;-79
2022/10/25 06:37:38;;;;;;;10.10;8.80;;;;;;;13.15;100.00;98950.16;106357;1285;58115;-79
2022/10/25 06:40:05;;;;;;;10.40;9.30;;;;;;;13.25;100.00;98958.36;106102;1288;58476;-79
2022/10/25 06:42:32;;;;;;;9.90;8.40;;;;;;;13.40;100.00;98965.63;106052;1282;65198;-79
2022/10/25 06:44:58;;;;;;;10.60;8.60;;;;;;;13.52;100.00;98970.17;106343;1284;60137;-79
2022/10/25 06:47:25;;;;;;;10.80;8.40;;;;;;;13.60;100.00;98976.71;106342;1278;63921;-79
2022/10/25 06:49:51;;;;;;;10.50;8.70;;;;;;;13.64;100.00;98983.01;106089;1289;60229;-79
2022/10/25 06:52:18;;;;;;;10.10;8.50;;;;;;;13.64;100.00;98984.45;106371;1285;58079;-80
2022/10/25 06:54:45;;;;;;;11.20;9.20;;;;;;;13.66;100.00;98990.16;106338;1278;73097;-78
2022/10/25 06:57:11;;;;;;;10.20;8.30;;;;;;;13.73;100.00;98996.00;106103;1281;58226;-79
2022/10/25 06:59:38;;;;;;;13.50;9.30;;;;;;;13.81;100.00;99000.17;106340;1285;63956;-79
2022/10/25 07:02:05;;;;;;;9.50;8.40;;;;;;;13.87;100.00;99002.20;106057;1289;58261;-80
2022/10/25 07:04:31;;;;;;;8.60;7.40;;;;;;;13.90;100.00;99003.77;106317;1289;58082;-78
2022/10/25 07:06:58;;;;;;;11.50;8.00;;;;;;;13.91;100.00;99004.76;106387;1285;65132;-79
2022/10/25 07:09:25;;;;;;;10.60;8.50;;;;;;;13.91;100.00;99009.91;106104;1280;60961;-79
2022/10/25 07:11:51;;;;;;;11.70;7.70;;;;;;;13.91;100.00;99007.23;106346;1286;65156;-78
2022/10/25 07:14:18;;;;;;;9.90;8.80;;;;;;;13.93;100.00;99004.08;106367;1284;58264;-79
2022/10/25 07:16:45;;;;;;;12.20;9.20;;;;;;;13.95;100.00;99007.78;106105;1288;58136;-78
2022/10/25 07:19:11;;;;;;;16.70;9.50;;;;;;;13.99;100.00;99006.09;106354;1284;66281;-79
2022/10/25 07:21:38;;;;;;;10.10;8.30;;;;;;;14.02;100.00;99006.56;106322;1284;59934;-80
2022/10/25 07:24:05;;;;;;;9.30;7.60;;;;;;;14.04;100.00;99005.09;106346;1285;62613;-79
2022/10/25 07:26:34;;;;;;;11.40;8.20;;;;;;;14.09;100.00;99005.45;106071;1288;58128;-78
2022/10/25 07:29:02;;;;;;;13.60;9.10;;;;;;;14.16;100.00;98999.15;106364;1285;58131;-78
2022/10/25 07:31:32;;;;;;;10.30;8.60;;;;;;;14.24;100.00;98997.21;106344;1285;66437;-78
2022/10/25 07:34:02;;;;;;;12.30;8.60;;;;;;;14.34;100.00;98993.91;106368;1284;61017;-78
2022/10/25 07:36:29;;;;;;;12.10;7.90;;;;;;;14.46;100.00;98992.95;106256;1285;64996;-77
2022/10/25 07:38:56;;;;;;;9.30;7.80;;;;;;;14.59;100.00;98991.71;106328;1285;57995;-78
2022/10/25 07:41:23;;;;;;;11.80;7.60;;;;;;;14.73;100.00;98988.21;106339;1285;58180;-77
2022/10/25 07:43:49;;;;;;;9.40;6.80;;;;;;;14.85;100.00;98987.38;106046;1287;73383;-78
2022/10/25 07:46:17;;;;;;;9.40;6.50;;;;;;;14.96;100.00;98984.66;106323;1285;59861;-78
2022/10/25 07:48:43;;;;;;;7.60;5.80;;;;;;;15.08;100.00;98979.71;106347;1286;65086;-78
2022/10/25 07:51:12;;;;;;;8.10;5.40;;;;;;;15.17;100.00;98972.46;106340;1285;58188;-78
2022/10/25 07:53:39;;;;;;;8.50;5.70;;;;;;;15.28;100.00;98965.81;106318;1284;57971;-78
2022/10/25 07:56:10;;;;;;;9.60;6.30;;;;;;;15.40;100.00;98961.38;106352;1285;66134;-78
2022/10/25 07:58:37;;;;;;;9.60;5.30;;;;;;;15.51;100.00;98953.61;106351;1278;59720;-78
2022/10/25 08:01:06;;;;;;;7.00;5.90;;;;;;;15.59;100.00;98950.00;106335;1276;64065;-78
2022/10/25 08:03:33;;;;;;;8.20;5.20;;;;;;;15.64;100.00;98947.42;106336;1286;58086;-78
2022/10/25 08:06:00;;;;;;;7.10;5.10;;;;;;;15.65;100.00;98945.86;106345;1278;58138;-78
2022/10/25 08:08:28;;;;;;;6.00;5.20;;;;;;;15.69;100.00;98951.08;106309;1278;66192;-79
2022/10/25 08:10:55;;;;;;;5.80;4.40;;;;;;;15.79;100.00;98960.80;106341;1284;59688;-79
2022/10/25 08:13:22;;;;;;;7.50;4.70;;;;;;;15.91;100.00;98972.83;106321;1278;65075;-79
2022/10/25 08:15:54;;;;;;;8.40;4.30;;;;;;;15.89;100.00;98981.64;106340;1285;58086;-79
2022/10/25 08:18:22;;;;;;;5.00;4.40;;;;;;;15.80;100.00;98988.82;106335;1278;58348;-79
2022/10/25 08:20:49;;;;;;;6.80;4.90;;;;;;;15.69;100.00;98997.12;106322;1285;65328;-79
2022/10/25 08:23:15;;;;;;;6.40;4.50;;;;;;;15.54;100.00;99006.13;106323;1285;59956;-78
2022/10/25 08:25:42;;;;;;;8.00;4.90;;;;;;;15.38;100.00;99015.73;106321;1278;71957;-79
2022/10/25 08:28:09;;;;;;;6.60;5.40;;;;;;;15.25;100.00;99023.32;106348;1277;59079;-78
2022/10/25 08:30:35;;;;;;;8.20;5.50;;;;;;;15.10;100.00;99021.74;106322;1293;58053;-79
2022/10/25 08:33:02;;;;;;;8.30;6.40;;;;;;;14.98;100.00;99028.52;106329;1285;66171;-78
2022/10/25 08:35:29;;;;;;;10.70;7.30;;;;;;;14.87;100.00;99027.06;106335;1285;61041;-79
2022/10/25 08:37:59;;;;;;;8.90;7.10;;;;;;;14.76;100.00;99026.78;106087;1289;64997;-79
2022/10/25 08:40:34;;;;;;;;;;;;;;;14.61;100.00;99031.17;106342;1282;58073;-79
2022/10/25 08:43:19;;;;;;;12.90;8.40;;;;;;;14.54;100.00;99028.61;106362;1285;58680;-78
2022/10/25 08:45:55;;;;;;;11.70;9.00;;;;;;;14.49;100.00;99029.11;106137;1288;66296;-77
2022/10/25 08:48:28;;;;;;;10.10;9.10;;;;;;;14.47;100.00;99027.70;106380;1282;60080;-77
2022/10/25 08:51:06;;;;;;;11.70;10.50;;;;;;;14.44;100.00;99031.18;106324;1285;64113;-77
2022/10/25 08:53:41;;;;;;;10.00;8.80;;;;;;;14.45;100.00;99024.62;106034;1291;58085;-77
2022/10/25 08:56:14;;;;;;;11.30;9.60;;;;;;;14.49;100.00;99019.84;105799;1294;58439;-77
2022/10/25 08:58:54;;;;;;;9.70;8.80;;;;;;;14.50;100.00;99020.42;106319;1285;66530;-78
2022/10/25 09:01:28;;;;;;;11.10;9.00;;;;;;;14.51;100.00;99022.52;106248;1288;60728;-78
2022/10/25 09:03:55;;;;;;;8.70;7.80;;;;;;;14.55;100.00;99029.98;106347;1278;64955;-78
2022/10/25 09:06:51;;;;;;;8.70;7.90;;;;;;;14.60;100.00;99027.00;106340;1285;58204;-78
2022/10/25 09:09:26;;;;;;;10.80;8.50;;;;;;;14.71;100.00;99030.61;106335;1285;58030;-78
2022/10/25 09:12:14;;;;;;;8.90;8.10;;;;;;;14.78;100.00;99030.02;106324;1292;74231;-78
2022/10/25 09:14:51;;;;;;;10.10;8.20;;;;;;;14.82;100.00;99030.70;106352;1278;60950;-78
2022/10/25 09:17:39;;;;;;;11.40;8.50;;;;;;;14.88;100.00;99032.39;106330;1278;64000;-78
2022/10/25 09:20:17;;;;;;;8.10;7.20;;;;;;;14.97;100.00;99028.80;106328;1285;58585;-78
2022/10/25 09:23:08;;;;;;;10.40;7.60;;;;;;;15.05;100.00;99035.74;106337;1285;58057;-78
2022/10/25 09:25:46;;;;;;;7.80;7.10;;;;;;;15.13;100.00;99037.77;105609;1296;66239;-78
2022/10/25 09:28:28;;;;;;;8.80;7.90;;;;;;;15.17;100.00;99037.79;105476;1297;60998;-78
2022/10/25 09:30:58;;;;;;;8.60;7.40;;;;;;;15.17;100.00;99039.79;105587;1294;63731;-78
2022/10/25 09:33:29;;;;;;;;;;;;;;;15.13;100.00;99044.02;105585;1294;58599;-78
2022/10/25 09:35:57;;;;;;;8.50;7.60;;;;;;;15.10;100.00;99044.77;105532;1289;58165;-78
2022/10/25 09:38:47;;;;;;;10.00;8.60;;;;;;;15.15;100.00;99042.77;105614;1288;66213;-78
2022/10/25 09:41:21;;;;;;;8.90;7.50;;;;;;;15.22;100.00;99044.84;105428;1295;59601;-79
2022/10/25 09:43:56;;;;;;;8.60;7.90;;;;;;;15.25;100.00;99048.01;105606;1288;65117;-78
2022/10/25 09:46:39;;;;;;;9.00;7.90;;;;;;;15.23;100.00;99048.05;105597;1294;58188;-78
2022/10/25 09:49:18;;;;;;;9.70;8.20;;;;;;;15.17;100.00;99040.46;105598;1297;59187;-78
2022/10/25 09:51:59;;;;;;;9.50;8.20;;;;;;;15.17;100.00;99034.39;105601;1286;66285;-78
2022/10/25 09:54:31;;;;;;;9.60;8.30;;;;;;;15.19;100.00;99025.46;105629;1294;66640;-78
2022/10/25 09:56:58;;;;;;;12.70;10.30;;;;;;;15.24;100.00;99020.86;105589;1302;73853;-79
2022/10/25 09:59:26;;;;;;;9.60;8.70;;;;;;;15.34;100.00;99025.42;105612;1302;58175;-79
2022/10/25 10:01:53;;;;;;;11.00;9.60;;;;;;;15.40;100.00;99031.52;105580;1295;58170;-79
2022/10/25 10:04:33;;;;;;;10.60;9.60;;;;;;;15.46;100.00;99025.98;106291;1284;66416;-78
2022/10/25 10:07:08;;;;;;;10.30;8.90;;;;;;;15.53;100.00;99021.11;106331;1285;59924;-79
2022/10/25 10:09:37;;;;;;;10.30;9.30;;;;;;;15.59;100.00;99018.77;106327;1286;64015;-78
2022/10/25 10:12:06;;;;;;;11.00;8.40;;;;;;;15.67;100.00;99015.25;106320;1285;58904;-79
2022/10/25 10:14:46;;;;;;;10.80;9.50;;;;;;;15.73;100.00;99020.45;106312;1278;58942;-79
2022/10/25 10:17:17;;;;;;;11.30;7.90;;;;;;;15.78;100.00;99024.83;106069;1285;73881;-78
2022/10/25 10:20:13;;;;;;;10.50;8.50;;;;;;;15.82;100.00;99029.89;106089;1287;61861;-79
2022/10/25 10:22:58;;;;;;;11.30;8.50;;;;;;;15.83;100.00;99029.95;106358;1278;64998;-79
2022/10/25 10:25:26;;;;;;;10.00;9.00;;;;;;;15.82;100.00;99029.14;106327;1285;59045;-82
2022/10/25 10:27:56;;;;;;;9.10;7.80;;;;;;;15.85;100.00;99030.17;106303;1285;58838;-83
2022/10/25 10:30:29;;;;;;;9.40;7.40;;;;;;;15.92;100.00;99029.89;106338;1293;66171;-84
2022/10/25 10:33:00;;;;;;;10.70;7.00;;;;;;;16.07;100.00;99029.83;106300;1286;60969;-82
2022/10/25 10:35:36;;;;;;;9.70;7.60;;;;;;;16.19;100.00;99031.20;106328;1285;64110;-85
2022/10/25 10:38:25;;;;;;;9.70;7.10;;;;;;;16.31;100.00;99030.73;106101;1284;59038;-81
2022/10/25 10:41:19;;;;;;;9.00;7.40;;;;;;;16.38;100.00;99028.83;106286;1278;59123;-83
2022/10/25 10:43:46;;;;;;;10.10;7.10;;;;;;;16.41;100.00;99025.64;106276;1285;67008;-81
2022/10/25 10:46:18;;;;;;;8.40;7.40;;;;;;;16.40;100.00;99024.81;106301;1285;58854;-81
2022/10/25 10:48:53;;;;;;;7.80;6.90;;;;;;;16.41;100.00;99026.73;106326;1285;65096;-84
2022/10/25 10:51:33;;;;;;;8.00;6.90;;;;;;;16.50;100.00;99024.02;106069;1293;59140;-81
2022/10/25 10:54:36;;;;;;;10.70;7.10;;;;;;;16.64;100.00;99025.04;106333;1285;58963;-82
2022/10/25 10:57:04;;;;;;;9.70;8.70;;;;;;;16.82;100.00;99025.70;106062;1288;66040;-78
2022/10/25 10:59:36;;;;;;;11.10;8.80;;;;;;;16.87;100.00;99026.86;106346;1288;60102;-79
2022/10/25 11:02:17;;;;;;;10.70;9.30;;;;;;;16.86;100.00;99026.83;106337;1284;64875;-78
2022/10/25 11:04:49;;;;;;;10.00;9.00;;;;;;;16.88;100.00;99026.44;106312;1285;58885;-80
2022/10/25 11:07:35;;;;;;;9.40;8.50;;;;;;;16.92;100.00;99027.15;106324;1284;59124;-79
2022/10/25 11:10:32;;;;;;;9.10;8.20;;;;;;;16.98;100.00;99029.28;106317;1286;67058;-79
2022/10/25 11:13:11;;;;;;;10.00;8.60;;;;;;;17.08;100.00;99030.98;105741;1290;68492;-79
2022/10/25 11:16:08;;;;;;;9.50;8.40;;;;;;;17.10;100.00;99024.20;105749;1292;63999;-79
2022/10/25 11:18:40;;;;;;;9.90;8.90;;;;;;;17.11;100.00;99019.63;105753;1284;58985;-78
2022/10/25 11:21:25;;;;;;;9.00;7.80;;;;;;;17.16;100.00;99020.59;105721;1293;59406;-78
2022/10/25 11:24:16;;;;;;;9.50;8.50;;;;;;;17.23;100.00;99018.30;105736;1292;66842;-79